Terminal Aerodrome Forecast
Issued by NWS

Current Version | Previous Version | Text Only | Print | Product List | Glossary On
Versions: 1 2 3 4 5 6 7 8 9 10 11 12 13
704
FTUS45 KABQ 171720
TAFGUP
TAF
KGUP 171720Z 1718/1818 VRB03KT P6SM FEW250
     FM172000 26007KT P6SM FEW250
     FM180100 VRB03KT P6SM SCT250=

USA.gov is the U.S. government's official web portal to all federal, state and local government web resources and services.